createdAt,value
2022-08-12T00:00:56.992Z,13.32
2022-08-12T00:02:09.410Z,13.32
2022-08-12T00:02:57.208Z,13.24
2022-08-12T00:03:57.125Z,13.27
2022-08-12T00:04:57.114Z,13.21
2022-08-12T00:06:09.833Z,13.19
2022-08-12T00:06:56.582Z,13.17
2022-08-12T00:07:56.828Z,13.21
2022-08-12T00:08:56.813Z,13.24
2022-08-12T00:09:57.065Z,13.24
2022-08-12T00:10:57.059Z,13.21
2022-08-12T00:11:57.046Z,13.21
2022-08-12T00:12:57.032Z,13.24
2022-08-12T00:13:57.026Z,13.24
2022-08-12T00:14:56.758Z,13.16
2022-08-12T00:15:57.011Z,13.25
2022-08-12T00:16:56.744Z,13.09
2022-08-12T00:17:57.016Z,13.21
2022-08-12T00:18:56.735Z,13.14
2022-08-12T00:19:56.729Z,13.17
2022-08-12T00:20:56.964Z,13.1
2022-08-12T00:21:58.560Z,13.13
2022-08-12T00:23:04.077Z,13.09
2022-08-12T00:23:56.682Z,13.09
2022-08-12T00:24:56.933Z,13.13
2022-08-12T00:26:27.148Z,13.16
2022-08-12T00:26:56.907Z,13.17
2022-08-12T00:27:56.669Z,13.16
2022-08-12T00:28:58.985Z,13.25
2022-08-12T00:29:56.628Z,13.16
2022-08-12T00:30:56.614Z,13.14
2022-08-12T00:31:56.875Z,13.16
2022-08-12T00:33:06.386Z,13.09
2022-08-12T00:33:57.910Z,13.2
2022-08-12T00:34:56.843Z,13.09
2022-08-12T00:35:56.842Z,13.11
2022-08-12T00:37:00.918Z,13.1
2022-08-12T00:37:56.556Z,13.13
2022-08-12T00:38:58.525Z,13.02
2022-08-12T00:39:56.808Z,13.11
2022-08-12T00:40:56.781Z,13.09
2022-08-12T00:41:56.768Z,13.06
2022-08-12T00:42:56.768Z,12.95
2022-08-12T00:44:01.047Z,12.95
2022-08-12T00:44:56.495Z,12.98
2022-08-12T00:45:56.736Z,12.96
2022-08-12T00:46:56.482Z,13.02
2022-08-12T00:47:56.485Z,12.94
2022-08-12T00:48:56.454Z,13.02
2022-08-12T00:49:56.697Z,12.96
2022-08-12T00:50:57.641Z,12.96
2022-08-12T00:51:58.138Z,12.96
2022-08-12T00:52:56.792Z,12.96
2022-08-12T00:53:56.407Z,13.02
2022-08-12T00:54:56.402Z,12.94
2022-08-12T00:55:56.648Z,12.94
2022-08-12T00:56:56.499Z,12.86
2022-08-12T00:57:56.376Z,12.84
2022-08-12T00:58:56.623Z,12.88
2022-08-12T00:59:56.620Z,12.86
2022-08-12T01:00:56.542Z,12.88
2022-08-12T01:02:16.106Z,12.83
2022-08-12T01:02:56.334Z,12.94
2022-08-12T01:03:56.595Z,12.83
2022-08-12T01:04:58.340Z,12.84
2022-08-12T01:05:56.557Z,12.81
2022-08-12T01:06:58.502Z,12.78
2022-08-12T01:07:56.280Z,12.76
2022-08-12T01:08:56.525Z,12.7
2022-08-12T01:09:56.012Z,12.73
2022-08-12T01:10:56.512Z,12.71
2022-08-12T01:11:56.503Z,12.73
2022-08-12T01:13:18.997Z,12.73
2022-08-12T01:13:56.486Z,12.7
2022-08-12T01:14:56.485Z,12.7
2022-08-12T01:15:56.480Z,12.65
2022-08-12T01:16:56.463Z,12.73
2022-08-12T01:17:56.451Z,12.69
2022-08-12T01:18:56.454Z,12.66
2022-08-12T01:19:55.938Z,12.73
2022-08-12T01:20:56.422Z,12.69
2022-08-12T01:21:56.409Z,12.65
2022-08-12T01:22:56.434Z,12.62
2022-08-12T01:23:56.419Z,12.63
2022-08-12T01:24:56.409Z,12.66
2022-08-12T01:26:00.492Z,12.59
2022-08-12T01:26:56.451Z,12.59
2022-08-12T01:27:56.380Z,12.65
2022-08-12T01:28:59.141Z,12.65
2022-08-12T01:29:56.622Z,12.59
2022-08-12T01:30:56.355Z,12.56
2022-08-12T01:31:56.608Z,12.59
2022-08-12T01:32:56.595Z,12.48
2022-08-12T01:33:56.333Z,12.52
2022-08-12T01:34:56.319Z,12.56
2022-08-12T01:36:12.774Z,12.56
2022-08-12T01:36:56.570Z,12.53
2022-08-12T01:37:56.555Z,12.52
2022-08-12T01:38:56.540Z,12.58
2022-08-12T01:40:47.099Z,12.61
2022-08-12T01:40:57.274Z,12.61
2022-08-12T01:41:58.725Z,12.53
2022-08-12T01:42:56.830Z,12.55
2022-08-12T01:43:56.823Z,12.52
2022-08-12T01:46:02.339Z,12.55
2022-08-12T01:46:57.323Z,12.55
2022-08-12T01:47:57.030Z,12.51
2022-08-12T01:48:57.022Z,12.55
2022-08-12T01:49:57.028Z,12.51
2022-08-12T01:51:05.501Z,12.47
2022-08-12T01:52:26.216Z,12.47
2022-08-12T01:53:10.543Z,12.47
2022-08-12T01:54:10.508Z,12.53
2022-08-12T01:55:10.244Z,12.43
2022-08-12T01:56:10.332Z,12.4
2022-08-12T01:57:10.475Z,12.51
2022-08-12T01:58:10.493Z,12.4
2022-08-12T01:59:16.663Z,12.43
2022-08-12T02:00:10.183Z,12.48
2022-08-12T02:01:10.433Z,12.44
2022-08-12T02:02:10.429Z,12.44
2022-08-12T02:03:10.155Z,12.38
2022-08-12T02:04:10.169Z,12.44
2022-08-12T02:05:10.396Z,12.51
2022-08-12T02:06:10.392Z,12.38
2022-08-12T02:07:10.119Z,12.47
2022-08-12T02:08:09.891Z,12.37
2022-08-12T02:09:10.359Z,12.44
2022-08-12T02:10:10.349Z,12.36
2022-08-12T02:11:10.338Z,12.47
2022-08-12T02:12:13.727Z,12.41
2022-08-12T02:13:10.318Z,12.43
2022-08-12T02:14:10.305Z,12.44
2022-08-12T02:15:11.046Z,12.44
2022-08-12T02:16:11.044Z,12.44
2022-08-12T02:17:10.767Z,12.41
2022-08-12T02:18:10.764Z,12.4
2022-08-12T02:19:27.578Z,12.31
2022-08-12T02:20:10.998Z,12.44
2022-08-12T02:21:10.731Z,12.44
2022-08-12T02:22:10.473Z,12.37
2022-08-12T02:23:10.966Z,12.28
2022-08-12T02:24:10.975Z,12.28
2022-08-12T02:25:10.696Z,12.26
2022-08-12T02:26:10.960Z,12.25
2022-08-12T02:27:10.682Z,12.36
2022-08-12T02:28:12.822Z,12.25
2022-08-12T02:29:10.398Z,12.33
2022-08-12T02:30:10.667Z,12.28
2022-08-12T02:31:10.895Z,12.36
2022-08-12T02:32:10.640Z,12.36
2022-08-12T02:33:10.885Z,12.23
2022-08-12T02:34:13.361Z,12.36
2022-08-12T02:35:10.603Z,12.34
2022-08-12T02:36:10.853Z,12.34
2022-08-12T02:37:10.584Z,12.4
2022-08-12T02:38:10.834Z,12.37
2022-08-12T02:39:10.903Z,12.4
2022-08-12T02:40:16.658Z,12.36
2022-08-12T02:41:10.539Z,12.28
2022-08-12T02:42:10.790Z,12.36
2022-08-12T02:43:10.796Z,12.29
2022-08-12T02:44:10.517Z,12.38
2022-08-12T02:45:10.508Z,12.34
2022-08-12T02:46:17.202Z,12.28
2022-08-12T02:48:01.310Z,12.26
2022-08-12T02:48:12.492Z,12.31
2022-08-12T02:49:16.152Z,12.28
2022-08-12T02:50:12.217Z,12.23
2022-08-12T02:51:12.205Z,12.2
2022-08-12T02:52:12.188Z,12.22
2022-08-12T02:53:12.439Z,12.25
2022-08-12T02:54:12.178Z,12.23
2022-08-12T02:55:12.425Z,12.26
2022-08-12T02:56:12.151Z,12.26
2022-08-12T02:57:12.662Z,12.2
2022-08-12T02:58:17.059Z,12.26
2022-08-12T02:59:12.621Z,12.16
2022-08-12T03:00:12.612Z,12.2
2022-08-12T03:01:12.564Z,12.2
2022-08-12T03:02:12.585Z,12.19
2022-08-12T03:03:12.588Z,12.2
2022-08-12T03:04:25.170Z,12.23
2022-08-12T03:05:14.179Z,12.18
2022-08-12T03:06:12.809Z,12.23
2022-08-12T03:07:12.808Z,12.18
2022-08-12T03:08:34.228Z,12.19
2022-08-12T03:09:16.665Z,12.18
2022-08-12T03:10:36.972Z,12.13
2022-08-12T03:11:18.878Z,12.16
2022-08-12T03:12:22.403Z,12.16
2022-08-12T03:13:12.490Z,12.16
2022-08-12T03:14:13.821Z,12.22
2022-08-12T03:15:12.469Z,12.15
2022-08-12T03:16:12.466Z,12.16
2022-08-12T03:17:12.450Z,12.03
2022-08-12T03:18:33.151Z,12.11
2022-08-12T03:19:12.678Z,12.13
2022-08-12T03:20:15.293Z,12.07
2022-08-12T03:21:12.660Z,12.1
2022-08-12T03:22:14.177Z,12.07
2022-08-12T03:23:29.404Z,12.07
2022-08-12T03:24:12.125Z,11.98
2022-08-12T03:25:12.111Z,11.97
2022-08-12T03:26:12.361Z,12.04
2022-08-12T03:27:12.604Z,12.11
2022-08-12T03:28:25.912Z,12.04
2022-08-12T03:29:12.590Z,12.04
2022-08-12T03:30:12.328Z,11.95
2022-08-12T03:31:12.562Z,12.03
2022-08-12T03:49:45.957Z,11.81
2022-08-12T03:50:45.931Z,11.76
2022-08-12T03:51:45.920Z,11.78
2022-08-12T03:52:45.939Z,11.71
2022-08-12T03:53:45.384Z,11.66
2022-08-12T03:54:47.533Z,11.68
2022-08-12T03:55:45.619Z,11.7
2022-08-12T03:56:45.859Z,11.66
2022-08-12T03:57:51.460Z,11.66
2022-08-12T03:58:45.823Z,11.78
2022-08-12T03:59:45.319Z,11.68
2022-08-12T04:00:46.049Z,11.7
2022-08-12T04:01:46.137Z,11.67
2022-08-12T04:02:46.759Z,11.7
2022-08-12T04:03:45.924Z,11.71
2022-08-12T04:04:46.463Z,11.61
2022-08-12T04:06:01.123Z,11.66
2022-08-12T04:06:46.142Z,11.73
2022-08-12T04:08:02.853Z,11.68
2022-08-12T04:08:46.382Z,11.73
2022-08-12T04:09:46.116Z,11.64
2022-08-12T04:10:46.100Z,11.68
2022-08-12T04:11:51.968Z,11.68
2022-08-12T04:12:46.372Z,11.7
2022-08-12T04:13:46.074Z,11.66
2022-08-12T04:14:46.070Z,11.63
2022-08-12T04:15:46.306Z,11.75
2022-08-12T04:16:46.157Z,11.78
2022-08-12T04:18:12.266Z,11.76
2022-08-12T04:18:46.020Z,11.81
2022-08-12T04:19:46.008Z,11.79
2022-08-12T04:20:46.259Z,11.76
2022-08-12T04:22:06.093Z,11.76
2022-08-12T04:22:46.306Z,11.81
2022-08-12T04:23:52.178Z,11.84
2022-08-12T04:24:52.740Z,11.82
2022-08-12T04:25:45.946Z,11.81
2022-08-12T04:26:47.995Z,11.84
2022-08-12T04:27:46.183Z,11.75
2022-08-12T04:28:46.186Z,11.79
2022-08-12T04:30:36.745Z,11.91
2022-08-12T04:30:47.010Z,11.88
2022-08-12T04:31:47.333Z,11.91
2022-08-12T04:32:49.887Z,11.89
2022-08-12T04:33:47.000Z,11.97
2022-08-12T04:34:46.977Z,12.04
2022-08-12T04:35:46.971Z,12
2022-08-12T04:36:46.947Z,12.03
2022-08-12T04:38:04.298Z,12.03
2022-08-12T04:38:47.193Z,12.01
2022-08-12T04:39:47.149Z,12.03
2022-08-12T04:40:47.171Z,12.01
2022-08-12T04:42:03.316Z,12
2022-08-12T04:42:47.158Z,12.07
2022-08-12T04:44:06.519Z,12.13
2022-08-12T04:44:47.161Z,12.1
2022-08-12T04:45:46.868Z,12.18
2022-08-12T04:46:46.598Z,12.2
2022-08-12T04:47:47.959Z,12.16
2022-08-12T04:48:51.231Z,12.13
2022-08-12T04:49:47.084Z,12.19
2022-08-12T04:50:47.075Z,12.29
2022-08-12T04:52:01.731Z,12.28
2022-08-12T04:52:47.365Z,12.34
2022-08-12T04:53:46.783Z,12.29
2022-08-12T04:54:47.045Z,12.29
2022-08-12T04:55:46.512Z,12.36
2022-08-12T04:57:06.430Z,12.28
2022-08-12T04:57:46.989Z,12.44
2022-08-12T04:58:50.689Z,12.41
2022-08-12T04:59:53.559Z,12.41
2022-08-12T05:00:46.982Z,12.43
2022-08-12T05:01:46.706Z,12.51
2022-08-12T05:02:47.261Z,12.51
2022-08-12T05:03:51.977Z,12.47
2022-08-12T05:04:46.680Z,12.55
2022-08-12T05:05:46.665Z,12.51
2022-08-12T05:06:46.669Z,12.61
2022-08-12T05:07:59.336Z,12.63
2022-08-12T05:08:46.638Z,12.56
2022-08-12T05:10:06.216Z,12.58
2022-08-12T05:10:46.634Z,12.62
2022-08-12T05:11:58.638Z,12.65
2022-08-12T05:12:46.678Z,12.74
2022-08-12T05:13:46.849Z,12.74
2022-08-12T05:14:46.325Z,12.73
2022-08-12T05:16:11.764Z,12.74
2022-08-12T05:16:52.421Z,12.78
2022-08-12T05:17:49.080Z,12.84
2022-08-12T05:18:50.502Z,12.86
2022-08-12T05:19:48.360Z,12.86
2022-08-12T05:20:46.792Z,12.98
2022-08-12T05:21:46.817Z,12.92
2022-08-12T05:22:46.915Z,12.98
2022-08-12T05:23:46.759Z,12.98
2022-08-12T05:24:46.751Z,13.06
2022-08-12T05:25:46.744Z,13.03
2022-08-12T05:26:46.724Z,13.07
2022-08-12T05:28:03.082Z,13.13
2022-08-12T05:28:46.708Z,13.17
2022-08-12T05:30:12.457Z,13.19
2022-08-12T05:30:46.441Z,13.19
2022-08-12T05:31:52.917Z,13.2
2022-08-12T05:32:46.491Z,13.25
2022-08-12T05:33:46.665Z,13.29
2022-08-12T05:34:46.170Z,13.39
2022-08-12T05:35:46.425Z,13.36
2022-08-12T05:36:46.413Z,13.37
2022-08-12T05:37:47.735Z,13.45
2022-08-12T05:38:46.403Z,13.48
2022-08-12T05:39:47.005Z,13.47
2022-08-12T05:40:46.514Z,13.45
2022-08-12T05:41:46.107Z,13.55
2022-08-12T05:42:47.448Z,13.55
2022-08-12T05:43:49.242Z,13.58
2022-08-12T05:44:46.338Z,13.63
2022-08-12T05:45:49.452Z,13.68
2022-08-12T05:46:46.581Z,13.7
2022-08-12T05:47:58.512Z,13.68
2022-08-12T05:48:46.302Z,13.83
2022-08-12T05:49:46.556Z,13.76
2022-08-12T05:50:46.284Z,13.86
2022-08-12T05:51:46.477Z,13.91
2022-08-12T05:52:47.152Z,13.99
2022-08-12T05:53:46.262Z,14.03
2022-08-12T05:55:02.038Z,14.02
2022-08-12T05:55:46.494Z,14.11
2022-08-12T05:56:46.584Z,14.12
2022-08-12T05:57:46.479Z,14.28
2022-08-12T05:58:50.125Z,14.3
2022-08-12T05:59:46.468Z,14.26
2022-08-12T06:00:46.475Z,14.33
2022-08-12T06:02:17.561Z,14.42
2022-08-12T06:02:46.872Z,14.42
2022-08-12T06:03:46.175Z,14.42
2022-08-12T06:04:46.174Z,14.46
2022-08-12T06:05:59.916Z,14.57
2022-08-12T06:06:45.901Z,14.52
2022-08-12T06:08:05.570Z,14.56
2022-08-12T06:08:45.882Z,14.53
2022-08-12T06:09:46.131Z,14.6
2022-08-12T06:10:46.118Z,14.66
2022-08-12T06:12:10.614Z,14.7
2022-08-12T06:12:46.772Z,14.75
2022-08-12T06:13:59.257Z,14.86
2022-08-12T06:14:46.088Z,14.9
2022-08-12T06:15:46.074Z,14.94
2022-08-12T06:16:46.327Z,15.04
2022-08-12T06:17:46.062Z,15.01
2022-08-12T06:18:46.054Z,15.13
2022-08-12T06:20:36.625Z,15.18
2022-08-12T06:20:48.910Z,15.25
2022-08-12T06:21:48.701Z,15.26
2022-08-12T06:22:48.845Z,15.3
2022-08-12T06:23:48.676Z,15.3
2022-08-12T06:24:48.709Z,15.37
2022-08-12T06:25:48.422Z,15.33
2022-08-12T06:26:48.402Z,15.4
2022-08-12T06:28:12.242Z,15.44
2022-08-12T06:28:48.384Z,15.52
2022-08-12T06:30:31.756Z,15.58
2022-08-12T06:31:27.482Z,15.62
2022-08-12T06:31:48.372Z,15.67
2022-08-12T06:33:24.674Z,15.84
2022-08-12T06:35:59.753Z,16.07
2022-08-12T06:36:37.314Z,16.1
2022-08-12T06:37:30.635Z,16.11
2022-08-12T06:38:30.659Z,16.21
2022-08-12T06:39:30.219Z,16.27
2022-08-12T06:40:35.642Z,16.3
2022-08-12T06:41:30.602Z,16.42
2022-08-12T06:42:47.701Z,16.44
2022-08-12T06:44:07.973Z,16.49
2022-08-12T06:44:30.586Z,16.67
2022-08-12T06:45:49.605Z,16.85
2022-08-12T06:46:30.064Z,16.95
2022-08-12T06:47:30.313Z,17.05
2022-08-12T06:48:30.306Z,17.17
2022-08-12T06:49:30.293Z,17.36
2022-08-12T06:50:36.862Z,17.92
2022-08-12T06:51:30.311Z,18.65
2022-08-12T06:52:30.024Z,19.31
2022-08-12T06:53:30.265Z,20
2022-08-12T06:54:36.461Z,21.06
2022-08-12T06:55:30.252Z,21.97
2022-08-12T06:58:10.313Z,24.48
2022-08-12T06:58:20.745Z,24.61
2022-08-12T06:59:20.974Z,25.26
2022-08-12T07:00:21.229Z,25.64
2022-08-12T07:01:21.574Z,25.96
2022-08-12T07:02:20.707Z,26.37
2022-08-12T07:03:27.977Z,26.87
2022-08-12T07:04:41.863Z,27.49
2022-08-12T07:05:21.214Z,27.87
2022-08-12T07:06:20.948Z,28.43
2022-08-12T07:07:21.202Z,28.86
2022-08-12T07:08:21.208Z,29.26
2022-08-12T07:10:10.717Z,29.75
2022-08-12T07:10:20.936Z,29.81
2022-08-12T07:11:21.197Z,29.87
2022-08-12T07:12:20.945Z,30.06
2022-08-12T07:13:21.204Z,30.39
2022-08-12T07:14:20.686Z,30.63
2022-08-12T07:15:20.939Z,30.89
2022-08-12T07:16:21.226Z,31.23
2022-08-12T07:17:21.373Z,31.38
2022-08-12T07:18:20.952Z,31.6
2022-08-12T07:19:21.449Z,31.91
2022-08-12T07:20:55.943Z,32.12
2022-08-12T07:21:21.212Z,32.16
2022-08-12T07:22:21.025Z,32.15
2022-08-12T07:23:20.694Z,32.03
2022-08-12T07:24:20.954Z,32.08
2022-08-12T07:25:20.960Z,32.28
2022-08-12T07:26:21.524Z,32.28
2022-08-12T07:27:20.958Z,32.09
2022-08-12T07:28:21.593Z,31.88
2022-08-12T07:29:20.966Z,31.81
2022-08-12T07:30:21.254Z,31.88
2022-08-12T07:31:21.911Z,32
2022-08-12T07:32:21.349Z,31.94
2022-08-12T07:33:20.994Z,32.06
2022-08-12T07:34:20.738Z,32.01
2022-08-12T07:35:20.990Z,32.15
2022-08-12T07:36:20.744Z,32.17
2022-08-12T07:37:21.004Z,32.27
2022-08-12T07:38:33.887Z,32.34
2022-08-12T07:39:21.192Z,32.37
2022-08-12T07:40:21.105Z,32.2
2022-08-12T07:41:21.012Z,32.01
2022-08-12T07:42:21.016Z,32.09
2022-08-12T07:43:21.271Z,32.13
2022-08-12T07:44:21.280Z,32.15
2022-08-12T07:45:21.028Z,32.3
2022-08-12T07:46:20.783Z,32.53
2022-08-12T07:47:21.037Z,32.87
2022-08-12T07:48:21.036Z,32.96
2022-08-12T07:49:20.787Z,32.94
2022-08-12T07:50:27.765Z,32.79
2022-08-12T07:51:30.236Z,32.65
2022-08-12T07:52:21.055Z,32.56
2022-08-12T07:53:20.805Z,32.49
2022-08-12T07:54:20.812Z,32.27
2022-08-12T07:55:21.319Z,31.97
2022-08-12T07:56:21.547Z,31.56
2022-08-12T07:57:21.342Z,30.96
2022-08-12T07:58:21.329Z,30.31
2022-08-12T07:59:20.817Z,29.61
2022-08-12T08:00:20.878Z,28.88
2022-08-12T08:01:21.597Z,28.11
2022-08-12T08:02:26.431Z,27.55
2022-08-12T08:03:21.077Z,27.19
2022-08-12T08:04:23.578Z,26.94
2022-08-12T08:05:21.084Z,26.54
2022-08-12T08:06:25.050Z,26.15
2022-08-12T08:07:21.371Z,26
2022-08-12T08:08:20.838Z,25.79
2022-08-12T08:09:20.833Z,25.6
2022-08-12T08:10:21.218Z,25.38
2022-08-12T08:11:21.348Z,25.02
2022-08-12T08:12:26.685Z,24.87
2022-08-12T08:13:20.835Z,24.77
2022-08-12T08:14:21.346Z,24.69
2022-08-12T08:15:29.783Z,24.61
2022-08-12T08:16:21.096Z,24.51
2022-08-12T08:17:21.354Z,24.58
2022-08-12T08:18:31.568Z,24.55
2022-08-12T08:19:20.844Z,24.36
2022-08-12T08:20:21.093Z,24.14
2022-08-12T08:21:21.346Z,23.9
2022-08-12T08:22:45.812Z,23.64
2022-08-12T08:23:20.846Z,23.56
2022-08-12T08:24:21.101Z,23.44
2022-08-12T08:25:40.043Z,23.25
2022-08-12T08:26:21.090Z,23.14
2022-08-12T08:27:21.334Z,23.07
2022-08-12T08:28:21.367Z,22.99
2022-08-12T08:29:21.354Z,22.88
2022-08-12T08:30:21.097Z,22.86
2022-08-12T08:31:21.347Z,22.84
2022-08-12T08:32:21.096Z,22.82
2022-08-12T08:34:53.179Z,22.7
2022-08-12T08:35:10.434Z,22.7
2022-08-12T08:36:15.488Z,22.66
2022-08-12T08:37:17.554Z,22.64
2022-08-12T08:38:06.040Z,22.6
2022-08-12T08:39:05.989Z,22.59
2022-08-12T08:40:07.378Z,22.48
2022-08-12T08:41:06.232Z,22.51
2022-08-12T08:42:24.307Z,22.51
2022-08-12T08:43:05.731Z,22.42
2022-08-12T08:44:05.867Z,22.57
2022-08-12T08:45:05.762Z,22.57
2022-08-12T08:46:06.243Z,22.64
2022-08-12T08:47:05.987Z,22.64
2022-08-12T08:48:05.971Z,22.7
2022-08-12T08:49:06.388Z,22.66
2022-08-12T08:50:06.027Z,22.64
2022-08-12T08:51:09.790Z,22.67
2022-08-12T08:52:06.214Z,22.66
2022-08-12T08:53:06.221Z,22.69
2022-08-12T08:54:06.372Z,22.57
2022-08-12T08:55:06.013Z,22.51
2022-08-12T08:56:09.806Z,22.69
2022-08-12T08:57:05.953Z,22.55
2022-08-12T08:58:06.224Z,22.6
2022-08-12T08:59:07.235Z,22.6
2022-08-12T09:00:06.206Z,22.76
2022-08-12T09:01:06.209Z,22.86
2022-08-12T09:02:07.545Z,22.91
2022-08-12T09:05:10.163Z,23.06
2022-08-12T09:06:09.246Z,23.32
2022-08-12T09:28:49.481Z,24.74
2022-08-12T09:30:17.172Z,24.8
2022-08-12T09:30:52.091Z,24.7
2022-08-12T09:33:15.426Z,24.37
2022-08-12T09:34:53.369Z,24.36
2022-08-12T09:36:02.883Z,24.39
2022-08-12T09:37:22.183Z,24.42
2022-08-12T09:38:03.533Z,24.42
2022-08-12T09:39:01.080Z,24.39
2022-08-12T09:43:15.610Z,24.51
2022-08-12T09:43:35.267Z,24.49
2022-08-12T09:44:44.531Z,24.51
2022-08-12T09:46:28.010Z,24.52
2022-08-12T09:46:44.488Z,24.49
2022-08-12T09:47:44.459Z,24.45
2022-08-12T09:48:58.698Z,24.49
2022-08-12T09:50:00.277Z,24.49
2022-08-12T09:50:55.379Z,24.52
2022-08-12T09:51:52.867Z,24.52
2022-08-12T09:52:47.895Z,24.58
2022-08-12T09:53:45.732Z,24.64
2022-08-12T09:54:52.836Z,24.74
2022-08-12T09:58:59.451Z,25.01
2022-08-12T09:59:11.693Z,25.01
2022-08-12T10:00:54.817Z,25.22
2022-08-12T10:02:55.608Z,25.27
2022-08-12T10:03:34.340Z,25.44
2022-08-12T10:04:21.542Z,25.44
2022-08-12T10:05:22.767Z,25.54
2022-08-12T10:07:03.154Z,25.6
2022-08-12T10:08:04.561Z,25.59
2022-08-12T10:09:00.795Z,25.67
2022-08-12T10:10:03.585Z,25.54
2022-08-12T10:11:00.527Z,25.49
2022-08-12T10:13:07.364Z,25.47
2022-08-12T10:13:50.224Z,25.52
2022-08-12T10:14:57.634Z,25.51
2022-08-12T10:16:18.481Z,25.6
2022-08-12T10:16:48.203Z,25.49
2022-08-12T10:18:10.604Z,25.49
2022-08-12T10:18:56.760Z,25.56
2022-08-12T10:20:01.968Z,25.54
2022-08-12T10:20:47.954Z,25.51
2022-08-12T10:21:47.938Z,25.54
2022-08-12T10:22:55.292Z,25.64
2022-08-12T10:23:55.108Z,25.67
2022-08-12T10:24:58.098Z,25.69
2022-08-12T10:26:42.024Z,25.62
2022-08-12T10:26:55.399Z,25.56
2022-08-12T10:28:24.794Z,25.51
2022-08-12T10:30:39.107Z,25.37
2022-08-12T10:31:16.203Z,25.07
2022-08-12T10:32:56.675Z,24.83
2022-08-12T10:34:06.335Z,24.83
2022-08-12T10:34:33.661Z,25.01
2022-08-12T10:35:42.734Z,25.07
2022-08-12T10:36:46.569Z,25.12
2022-08-12T10:38:46.523Z,25.11
2022-08-12T10:40:07.234Z,25.3
2022-08-12T10:40:40.120Z,25.37
2022-08-12T10:42:04.314Z,25.57
2022-08-12T10:42:37.023Z,25.75
2022-08-12T10:44:00.877Z,25.99
2022-08-12T10:44:37.559Z,26.16
2022-08-12T10:45:40.429Z,26.31
2022-08-12T10:46:36.830Z,26.26
2022-08-12T10:48:36.258Z,26.22
2022-08-12T10:50:22.363Z,26.23
2022-08-12T10:52:42.411Z,26.17
2022-08-12T10:53:21.937Z,26.17
2022-08-12T10:54:15.520Z,26.26
2022-08-12T10:55:19.232Z,26.34
2022-08-12T10:56:09.787Z,26.39
2022-08-12T10:57:49.299Z,26.41
2022-08-12T10:58:41.482Z,26.27
2022-08-12T11:00:55.715Z,26.03
2022-08-12T11:04:57.369Z,25.66
2022-08-12T11:08:51.087Z,25.11
2022-08-12T11:10:04.079Z,24.86
2022-08-12T11:10:42.928Z,24.89
2022-08-12T11:13:03.510Z,24.78
2022-08-12T11:13:19.013Z,24.85
2022-08-12T11:14:57.065Z,25
2022-08-12T11:16:32.115Z,25.07
2022-08-12T11:17:59.409Z,25.09
2022-08-12T11:18:24.995Z,25
2022-08-12T11:19:27.092Z,25.01
2022-08-12T11:20:20.327Z,24.94
2022-08-12T11:21:21.168Z,24.96
2022-08-12T11:22:26.392Z,25.14
2022-08-12T11:23:42.457Z,25.22
2022-08-12T11:24:36.234Z,25.12
2022-08-12T11:25:20.273Z,25.11
2022-08-12T11:26:23.738Z,25.02
2022-08-12T11:27:17.934Z,25.02
2022-08-12T11:28:33.224Z,25
2022-08-12T11:29:27.773Z,25.29
2022-08-12T11:30:37.270Z,25.33
2022-08-12T11:32:04.886Z,25.6
2022-08-12T11:32:49.507Z,25.88
2022-08-12T11:34:59.124Z,26.35
2022-08-12T11:35:11.430Z,26.47
2022-08-12T11:36:21.717Z,26.6
2022-08-12T11:37:28.064Z,26.76
2022-08-12T11:38:11.475Z,26.96
2022-08-12T11:39:14.547Z,27.01
2022-08-12T11:40:16.047Z,27.11
2022-08-12T11:41:14.424Z,27.21
2022-08-12T11:42:15.039Z,27.26
2022-08-12T11:43:24.199Z,27.33
2022-08-12T11:44:47.454Z,27.37
2022-08-12T11:45:18.731Z,27.43
2022-08-12T11:46:22.848Z,27.46
2022-08-12T11:47:17.577Z,27.28
2022-08-12T11:48:26.864Z,27.41
2022-08-12T11:49:34.170Z,27.38
2022-08-12T11:50:34.622Z,27.3
2022-08-12T11:51:15.987Z,27.15
2022-08-12T11:52:58.484Z,26.86
2022-08-12T11:54:05.571Z,26.63
2022-08-12T11:55:04.384Z,26.44
2022-08-12T11:56:02.293Z,26.23
2022-08-12T12:02:07.940Z,25.63
2022-08-12T12:02:28.095Z,25.6
2022-08-12T12:03:46.557Z,25.57
2022-08-12T12:04:34.195Z,25.64
2022-08-12T12:05:45.561Z,25.7
2022-08-12T12:06:24.792Z,25.79
2022-08-12T12:07:33.762Z,25.78
2022-08-12T12:09:05.026Z,25.79
2022-08-12T12:10:01.910Z,25.84
2022-08-12T12:11:01.834Z,25.88
2022-08-12T12:12:00.107Z,25.94
2022-08-12T12:13:00.103Z,26.04
2022-08-12T12:14:18.003Z,26.17
2022-08-12T12:15:15.808Z,26.16
2022-08-12T12:16:12.735Z,26.11
2022-08-12T12:17:13.768Z,25.93
2022-08-12T12:18:30.827Z,25.89
2022-08-12T12:19:13.172Z,25.94
2022-08-12T12:20:13.951Z,26.04
2022-08-12T12:21:12.942Z,26.11
2022-08-12T12:22:30.903Z,26.16
2022-08-12T12:23:38.547Z,26.06
2022-08-12T12:24:12.650Z,26.24
2022-08-12T12:25:59.880Z,26.32
2022-08-12T12:26:44.316Z,26.38
2022-08-12T12:28:39.639Z,26.68
2022-08-12T12:30:19.001Z,26.84
2022-08-12T12:30:40.022Z,26.91
2022-08-12T12:32:16.375Z,26.89
2022-08-12T12:32:40.362Z,26.94
2022-08-12T12:34:02.570Z,26.94
2022-08-12T12:35:18.494Z,27.01
2022-08-12T12:36:39.735Z,26.89
2022-08-12T12:38:14.974Z,26.75
2022-08-12T12:38:40.781Z,26.78
2022-08-12T12:40:00.335Z,26.78
2022-08-12T12:40:46.243Z,26.72
2022-08-12T12:43:05.719Z,26.64
2022-08-12T12:43:42.737Z,26.63
2022-08-12T12:44:50.890Z,26.53
2022-08-12T12:45:32.482Z,26.45
2022-08-12T12:46:19.713Z,26.32
2022-08-12T12:47:39.326Z,26.32
2022-08-12T12:48:18.848Z,26.17
2022-08-12T12:49:28.464Z,25.91
2022-08-12T12:50:51.099Z,25.63
2022-08-12T12:52:22.080Z,25.24
2022-08-12T12:52:37.714Z,25.24
2022-08-12T12:54:12.698Z,25.04
2022-08-12T12:54:38.142Z,25
2022-08-12T12:55:40.697Z,24.89
2022-08-12T12:56:39.557Z,24.96
2022-08-12T12:58:03.920Z,24.83
2022-08-12T12:58:37.943Z,24.92
2022-08-12T13:00:01.526Z,25
2022-08-12T13:00:37.802Z,25
2022-08-12T13:01:44.422Z,25.14
2022-08-12T13:02:37.439Z,25.29
2022-08-12T13:03:53.405Z,25.47
2022-08-12T13:04:41.959Z,25.54
2022-08-12T13:05:56.325Z,25.7
2022-08-12T13:06:39.110Z,25.78
2022-08-12T13:08:03.983Z,26.03
2022-08-12T13:08:40.556Z,26.16
2022-08-12T13:09:40.921Z,26.27
2022-08-12T13:10:52.464Z,26.5
2022-08-12T13:11:47.575Z,26.67
2022-08-12T13:12:42.230Z,26.76
2022-08-12T13:14:31.536Z,26.61
2022-08-12T13:14:52.268Z,26.47
2022-08-12T13:15:53.620Z,26.53
2022-08-12T13:16:48.940Z,26.39
2022-08-12T13:18:07.271Z,26.31
2022-08-12T13:18:49.051Z,26.31
2022-08-12T13:19:54.786Z,26.26
2022-08-12T13:20:49.424Z,26.2
2022-08-12T13:21:49.413Z,26.03
2022-08-12T13:22:55.603Z,25.99
2022-08-12T13:23:50.198Z,26.03
2022-08-12T13:24:57.588Z,26.04
2022-08-12T13:25:51.939Z,26.3
2022-08-12T13:26:49.165Z,26.39
2022-08-12T13:27:53.111Z,26.53
2022-08-12T13:28:58.058Z,26.74
2022-08-12T13:29:53.071Z,26.76
2022-08-12T13:30:56.739Z,26.94
2022-08-12T13:32:34.059Z,27.23
2022-08-12T13:33:02.858Z,27.27
2022-08-12T13:34:39.370Z,27.48
2022-08-12T13:35:33.120Z,27.71
2022-08-12T13:36:24.890Z,27.83
2022-08-12T13:37:17.260Z,27.84
2022-08-12T13:38:34.710Z,27.96
2022-08-12T13:39:20.688Z,27.99
2022-08-12T13:40:17.941Z,28.01
2022-08-12T13:41:20.240Z,28.03
2022-08-12T13:42:19.479Z,28.01
2022-08-12T13:43:42.679Z,28.2
2022-08-12T13:44:16.986Z,28.17
2022-08-12T13:45:18.050Z,28.17
2022-08-12T13:46:16.977Z,28.2
2022-08-12T13:47:25.624Z,28.23
2022-08-12T13:48:22.261Z,28.16
2022-08-12T13:49:58.704Z,27.83
2022-08-12T13:50:18.992Z,27.65
2022-08-12T13:51:26.259Z,27.31
2022-08-12T13:52:16.819Z,27
2022-08-12T13:54:04.920Z,26.53
2022-08-12T13:54:19.969Z,26.52
2022-08-12T13:55:23.398Z,26.19
2022-08-12T13:56:22.779Z,25.94
2022-08-12T13:57:21.648Z,25.62
2022-08-12T13:58:23.095Z,25.48
2022-08-12T13:59:26.817Z,25.27
2022-08-12T14:00:20.913Z,25.05
2022-08-12T14:01:21.842Z,24.96
2022-08-12T14:02:25.232Z,25.04
2022-08-12T14:03:20.160Z,25.02
2022-08-12T14:04:22.706Z,25.07
2022-08-12T14:05:43.563Z,25.22
2022-08-12T14:06:20.849Z,25.2
2022-08-12T14:07:25.907Z,25.24
2022-08-12T14:08:27.432Z,25.37
2022-08-12T14:09:22.837Z,25.52
2022-08-12T14:10:21.420Z,25.59
2022-08-12T14:11:25.172Z,25.59
2022-08-12T14:12:26.313Z,25.59
2022-08-12T14:14:11.669Z,25.81
2022-08-12T14:14:26.204Z,25.79
2022-08-12T14:15:39.951Z,25.91
2022-08-12T14:16:54.712Z,26.06
2022-08-12T14:17:27.737Z,26.07